Terminal Aerodrome Forecast
Issued by NWS Hastings, NE

Home | Current Version | Previous Version | Text Only | Print | Product List | Glossary On
Versions: 1 2 3 4 5 6 7 8 9 10 11 12
000
FTUS43 KGID 081730
TAFGRI
TAF
KGRI 081730Z 0818/0918 33015G22KT P6SM SKC
     FM082300 32008KT P6SM SKC
     FM090400 VRB04KT P6SM FEW200
     FM091600 14007KT P6SM BKN080=

USA.gov is the U.S. government's official web portal to all federal, state and local government web resources and services.